• Join FlightAware (Why Join?)
  • Login
  • US Flag 
03:19AM EDT


 

Airport Tracker/Info


-or-


 

Live Flight TrackerFlight Track Log ✈ N300DC ✈ 03-May-2013 ✈ KALB - KHWV

Flight Track Log - Related Links

Times and Time Zones

All times are in EDT time to prevent confusion due to time zone crossing. See the N300DC flight status page for this flight to view local times or setup timezone preferences in your user account.

Time Position Orientation Groundspeed Altitude Reporting Facility
EDT Latitude Longitude Course Direction KTS MPH feet Rate Location/Type
01:42PM 42.6261 -73.7692 160° South 81 93 3,500  Level Boston Center
01:43PM 42.6053 -73.7658 173° South 87 100 4,000 420 Climbing Boston Center
01:44PM 42.5822 -73.7681 184° South 86 99 4,400 360 Climbing Boston Center
01:45PM 42.5594 -73.7619 169° South 87 100 4,800 300 Climbing Boston Center
01:46PM 42.5408 -73.7475 150° Southeast 77 89 5,100 240 Climbing Boston Center
01:47PM 42.7432 -73.7990 160° South  Level Estimated
01:47PM 42.5222 -73.7331 150° Southeast 77 89 5,400  Level Boston Center
01:48PM 42.4972 -73.7242 161° South 84 97 5,400  Level Boston Center
01:49PM 42.4776 -73.7097 161° South  Level Estimated
01:49PM 42.4767 -73.7125 157° South 83 96 5,400  Level Boston Center
01:50PM 42.4581 -73.6953 146° Southeast 85 98 5,400 120 Level Boston Center
01:51PM 42.4375 -73.6836 157° South 84 97 5,700 360 Climbing Boston Center
01:52PM 42.4186 -73.6747 161° South 73 84 6,200 420 Climbing Boston Center
01:53PM 42.4000 -73.6686 166° South 67 77 6,600 360 Climbing Boston Center
01:54PM 42.3814 -73.6628 167° South 71 82 7,000 360 Climbing Boston Center
01:55PM 42.3606 -73.6539 163° South 76 87 7,300 300 Climbing Boston Center
01:55PM 42.3606 -73.6539 163° South 78 90 7,300 180 Level Boston Center
01:56PM 42.3397 -73.6536 179° South 86 99 7,500  Climbing Boston Center
01:57PM 42.3086 -73.6472 171° South 104 120 7,400 -60 Descending Boston Center
01:58PM 42.2753 -73.6381 168° South 105 121 7,400  Level Boston Center
01:59PM 42.2544 -73.6322 168° South 99 114 7,400 -60 Level Boston Center
02:00PM 42.2317 -73.6206 159° South 94 108 7,300  Descending Boston Center
02:01PM 42.2131 -73.6033 146° Southeast 88 101 7,500 120 Climbing Boston Center
02:02PM 42.1967 -73.5833 138° Southeast 83 96 7,600  Climbing Boston Center
02:03PM 42.1781 -73.5608 138° Southeast 83 96 7,500 -60 Descending Boston Center
02:04PM 42.1511 -73.5433 154° Southeast 93 107 7,500  Level Boston Center
02:05PM 42.1283 -73.5347 164° South 100 115 7,500 -60 Level Boston Center
02:06PM 42.0994 -73.5172 156° South 100 115 7,400  Descending Boston Center
02:07PM 42.0767 -73.5003 151° Southeast 100 115 7,500  Climbing Boston Center
02:08PM 42.0517 -73.4886 161° South 100 115 7,500  Level Boston Center
02:09PM 42.0308 -73.4742 153° Southeast 93 107 7,500  Level Boston Center
02:10PM 42.0122 -73.4628 156° South 93 107 7,500  Level Boston Center
02:11PM 41.9811 -73.4483 161° South 93 107 7,500  Level Boston Center
02:12PM 41.9500 -73.4367 164° South 103 119 7,500  Level Boston Center
02:13PM 41.9250 -73.4250 161° South 103 119 7,500  Level Boston Center
02:14PM 41.8961 -73.4133 163° South 103 119 7,500  Level Boston Center
02:15PM 41.8628 -73.3961 159° South 108 124 7,500  Level Boston Center
02:16PM 41.8358 -73.3819 159° South 103 119 7,500 -60 Level Boston Center
02:17PM 41.8089 -73.3675 158° South 108 124 7,400 -60 Descending Boston Center
02:18PM 41.7797 -73.3506 157° South 108 124 7,400  Level Boston Center
02:19PM 41.7592 -73.3389 157° South 97 112 7,500  Climbing Boston Center
02:20PM 41.7322 -73.3219 155° Southeast 92 106 7,500  Level Boston Center
02:21PM 41.7050 -73.3131 166° South 99 114 7,500  Level Boston Center
02:22PM 41.6761 -73.2989 160° South 105 121 7,500  Level Boston Center
02:23PM 41.6511 -73.2875 161° South 105 121 7,500  Level Boston Center
02:25PM 41.6000 -73.2667 163° South 108 124 7,600  Climbing New York TRACON
02:26PM 41.5667 -73.2500 159° South 103 119 7,600  Level New York TRACON
02:27PM 41.5500 -73.2333 143° Southeast 105 121 7,600  Level New York TRACON
02:28PM 41.5167 -73.2167 159° South 107 123 7,600 -60 Level New York TRACON
02:29PM 41.4833 -73.2000 159° South 108 124 7,500  Descending New York TRACON
02:30PM 41.4667 -73.2000 180° South 99 114 7,600  Climbing New York TRACON
02:31PM 41.4333 -73.1833 159° South 100 115 7,600  Level New York TRACON
02:32PM 41.4167 -73.1667 143° Southeast 102 117 7,600  Level New York TRACON
02:33PM 41.3833 -73.1500 159° South 101 116 7,600 -240 Level New York TRACON
02:35PM 41.3333 -73.1167 153° Southeast 105 121 6,900 -360 Descending New York TRACON
02:37PM 41.2841 -73.0920 159° South  Level FlightAware Approximate
02:44PM 41.1099 -73.0017 157° South  Level FlightAware Approximate
02:45PM 41.0852 -72.9880 157° South  Level FlightAware Approximate
02:46PM 41.0606 -72.9743 157° South  Level FlightAware Approximate
02:47PM 41.0359 -72.9607 157° South  Level FlightAware Approximate
02:48PM 41.0108 -72.9500 180° South  Level FlightAware Approximate
02:49PM 40.9849 -72.9435 162° South  Level FlightAware Approximate
02:50PM 40.9594 -72.9326 162° South  Level FlightAware Approximate
02:51PM 40.9340 -72.9217 162° South  Level FlightAware Approximate
02:52PM 40.9086 -72.9108 162° South  Level FlightAware Approximate
02:53PM 40.8832 -72.8999 159° South  Level FlightAware Approximate
02:54PM 40.8582 -72.8874 159° South  Level FlightAware Approximate
02:55PM 40.8332 -72.8749 159° South  Level FlightAware Approximate
02:56PM 40.8167 -72.8667 159° South  Level FlightAware Approximate
02:57PM 40.8219 -72.8669 159° South  Level Estimated
02:58PM 40.8167 -72.8667 159° South  Level FlightAware Approximate
02:59PM 40.8219 -72.8669 159° South  Level Estimated
03:00PM 40.8167 -72.8667 159° South  Level FlightAware Approximate
03:01PM 40.8219 -72.8669 159° South  Level Estimated
03:02PM 40.8167 -72.8667 159° South  Level FlightAware Approximate